createdAt,value
2018-08-18T00:01:16.430Z,100193.70
2018-08-18T00:03:42.368Z,100187.16
2018-08-18T00:06:08.412Z,100187.73
2018-08-18T00:08:34.343Z,100191.25
2018-08-18T00:11:00.271Z,100179.21
2018-08-18T00:13:26.218Z,100169.56
2018-08-18T00:15:52.157Z,100159.09
2018-08-18T00:18:18.089Z,100169.98
2018-08-18T00:20:44.043Z,100174.62
2018-08-18T00:23:09.975Z,100164.29
2018-08-18T00:25:35.911Z,100167.70
2018-08-18T00:28:01.849Z,100178.56
2018-08-18T00:30:27.792Z,100176.85
2018-08-18T00:32:53.731Z,100162.83
2018-08-18T00:35:19.670Z,100162.61
2018-08-18T00:37:45.632Z,100145.01
2018-08-18T00:40:11.603Z,100143.91
2018-08-18T00:42:37.568Z,100147.88
2018-08-18T00:45:03.540Z,100146.91
2018-08-18T00:47:29.508Z,100156.14
2018-08-18T00:49:55.448Z,100155.38
2018-08-18T00:52:21.391Z,100153.13
2018-08-18T00:54:47.328Z,100148.72
2018-08-18T00:57:13.287Z,100143.39
2018-08-18T00:59:39.264Z,100147.88
2018-08-18T01:02:05.263Z,100147.48
2018-08-18T01:04:31.383Z,100145.30
2018-08-18T01:06:57.363Z,100144.41
2018-08-18T01:09:23.293Z,100137.03
2018-08-18T01:11:49.339Z,100135.29
2018-08-18T01:14:15.337Z,100133.28
2018-08-18T01:16:41.176Z,100135.38
2018-08-18T01:19:07.142Z,100119.73
2018-08-18T01:21:33.178Z,100112.73
2018-08-18T01:23:59.071Z,100099.84
2018-08-18T01:26:25.012Z,100100.55
2018-08-18T01:28:50.960Z,100101.33
2018-08-18T01:31:16.922Z,100109.52
2018-08-18T01:33:42.884Z,100116.23
2018-08-18T01:36:08.855Z,100120.64
2018-08-18T01:38:34.839Z,100117.11
2018-08-18T01:41:00.771Z,100102.69
2018-08-18T01:43:26.724Z,100099.58
2018-08-18T01:45:52.658Z,100096.89
2018-08-18T01:48:18.599Z,100098.72
2018-08-18T01:50:44.559Z,100103.73
2018-08-18T01:53:10.505Z,100100.69
2018-08-18T01:55:36.468Z,100111.09
2018-08-18T01:58:02.423Z,100116.53
2018-08-18T02:00:28.744Z,100123.85
2018-08-18T02:02:54.726Z,100131.16
2018-08-18T02:05:20.664Z,100140.39
2018-08-18T02:07:46.616Z,100138.09
2018-08-18T02:10:12.562Z,100140.22
2018-08-18T02:12:38.525Z,100138.94
2018-08-18T02:15:04.461Z,100141.61
2018-08-18T02:17:30.396Z,100142.68
2018-08-18T02:19:56.367Z,100146.55
2018-08-18T02:22:22.330Z,100144.61
2018-08-18T02:24:48.288Z,100157.20
2018-08-18T02:27:14.239Z,100178.48
2018-08-18T02:29:40.173Z,100172.58
2018-08-18T02:32:06.148Z,100177.27
2018-08-18T02:34:32.094Z,100184.09
2018-08-18T02:36:58.072Z,100183.97
2018-08-18T02:39:24.041Z,100182.22
2018-08-18T02:41:50.009Z,100182.73
2018-08-18T02:44:15.952Z,100179.93
2018-08-18T02:46:41.912Z,100177.45
2018-08-18T02:49:07.887Z,100173.15
2018-08-18T02:51:33.817Z,100178.93
2018-08-18T02:53:59.766Z,100176.52
2018-08-18T02:56:25.711Z,100179.85
2018-08-18T02:58:51.708Z,100177.70
2018-08-18T03:01:17.662Z,100177.74
2018-08-18T03:03:43.613Z,100171.36
2018-08-18T03:06:09.572Z,100174.40
2018-08-18T03:08:35.499Z,100169.14
2018-08-18T03:11:01.451Z,100163.41
2018-08-18T03:13:27.399Z,100164.02
2018-08-18T03:15:53.361Z,100173.78
2018-08-18T03:18:19.347Z,100178.01
2018-08-18T03:20:45.306Z,100176.82
2018-08-18T03:23:11.265Z,100176.34
2018-08-18T03:25:37.193Z,100175.41
2018-08-18T03:28:03.127Z,100175.98
2018-08-18T03:30:29.089Z,100174.33
2018-08-18T03:32:55.044Z,100173.50
2018-08-18T03:35:20.996Z,100159.94
2018-08-18T03:37:46.929Z,100153.06
2018-08-18T03:40:12.901Z,100151.50
2018-08-18T03:42:38.854Z,100172.30
2018-08-18T03:45:04.825Z,100173.73
2018-08-18T03:47:30.766Z,100173.61
2018-08-18T03:49:56.721Z,100174.01
2018-08-18T03:52:22.684Z,100176.17
2018-08-18T03:54:48.603Z,100172.62
2018-08-18T03:57:14.535Z,100165.13
2018-08-18T03:59:40.482Z,100155.59
2018-08-18T04:02:06.449Z,100161.44
2018-08-18T04:04:32.364Z,100149.68
2018-08-18T04:06:58.291Z,100155.78
2018-08-18T04:09:24.737Z,100163.34
2018-08-18T04:11:50.533Z,100157.52
2018-08-18T04:14:16.482Z,100157.72
2018-08-18T04:16:42.426Z,100170.66
2018-08-18T04:19:08.360Z,100174.59
2018-08-18T04:21:34.409Z,100183.95
2018-08-18T04:24:00.361Z,100175.72
2018-08-18T04:26:26.331Z,100171.02
2018-08-18T04:28:52.269Z,100171.17
2018-08-18T04:31:18.220Z,100183.75
2018-08-18T04:33:44.185Z,100186.53
2018-08-18T04:36:10.144Z,100191.27
2018-08-18T04:38:36.088Z,100193.23
2018-08-18T04:41:02.067Z,100197.95
2018-08-18T04:43:28.013Z,100203.08
2018-08-18T04:45:53.969Z,100208.55
2018-08-18T04:48:19.917Z,100206.59
2018-08-18T04:50:45.857Z,100210.71
2018-08-18T04:53:11.815Z,100211.43
2018-08-18T04:55:37.768Z,100209.50
2018-08-18T04:58:03.709Z,100218.75
2018-08-18T05:00:29.683Z,100224.53
2018-08-18T05:02:55.609Z,100229.84
2018-08-18T05:05:21.607Z,100225.42
2018-08-18T05:07:47.580Z,100237.94
2018-08-18T05:10:13.527Z,100237.82
2018-08-18T05:12:39.469Z,100242.42
2018-08-18T05:15:05.415Z,100241.28
2018-08-18T05:17:31.357Z,100235.70
2018-08-18T05:19:57.303Z,100233.34
2018-08-18T05:22:23.295Z,100243.78
2018-08-18T05:24:49.244Z,100245.11
2018-08-18T05:27:15.182Z,100238.05
2018-08-18T05:29:41.136Z,100239.75
2018-08-18T05:32:07.083Z,100250.92
2018-08-18T05:34:33.045Z,100251.13
2018-08-18T05:36:58.988Z,100254.28
2018-08-18T05:39:24.912Z,100251.47
2018-08-18T05:41:50.834Z,100261.79
2018-08-18T05:44:16.822Z,100261.75
2018-08-18T05:46:42.781Z,100255.28
2018-08-18T05:49:08.712Z,100266.02
2018-08-18T05:51:34.660Z,100269.31
2018-08-18T05:54:00.687Z,100266.11
2018-08-18T05:56:26.633Z,100271.28
2018-08-18T05:58:52.575Z,100270.16
2018-08-18T06:01:18.523Z,100279.55
2018-08-18T06:03:44.473Z,100285.34
2018-08-18T06:06:10.516Z,100290.16
2018-08-18T06:08:36.468Z,100285.56
2018-08-18T06:11:02.427Z,100290.27
2018-08-18T06:13:28.395Z,100296.79
2018-08-18T06:15:54.393Z,100294.62
2018-08-18T06:18:20.335Z,100295.50
2018-08-18T06:20:47.334Z,100296.59
2018-08-18T06:23:13.302Z,100298.84
2018-08-18T06:25:39.268Z,100307.10
2018-08-18T06:28:05.207Z,100304.52
2018-08-18T06:30:31.159Z,100308.35
2018-08-18T06:32:57.109Z,100305.23
2018-08-18T06:35:23.057Z,100306.38
2018-08-18T06:37:49.056Z,100316.34
2018-08-18T06:40:15.018Z,100314.66
2018-08-18T06:42:41.000Z,100316.96
2018-08-18T06:45:06.947Z,100322.02
2018-08-18T06:47:32.912Z,100325.41
2018-08-18T06:49:58.940Z,100328.92
2018-08-18T06:52:24.886Z,100331.08
2018-08-18T06:54:50.887Z,100330.75
2018-08-18T06:57:16.806Z,100331.59
2018-08-18T06:59:42.771Z,100332.78
2018-08-18T07:02:09.729Z,100333.18
2018-08-18T07:04:35.717Z,100323.74
2018-08-18T07:07:01.652Z,100330.16
2018-08-18T07:09:27.608Z,100330.83
2018-08-18T07:11:53.571Z,100333.69
2018-08-18T07:14:19.543Z,100341.63
2018-08-18T07:16:45.499Z,100334.70
2018-08-18T07:19:11.441Z,100338.42
2018-08-18T07:21:38.864Z,100334.37
2018-08-18T07:24:04.905Z,100341.83
2018-08-18T07:26:30.853Z,100349.31
2018-08-18T07:28:56.942Z,100344.64
2018-08-18T07:31:22.783Z,100347.59
2018-08-18T07:33:48.767Z,100352.36
2018-08-18T07:36:14.729Z,100346.89
2018-08-18T07:38:40.689Z,100349.37
2018-08-18T07:41:06.639Z,100360.27
2018-08-18T07:43:32.588Z,100356.30
2018-08-18T07:45:58.616Z,100365.11
2018-08-18T07:48:24.632Z,100359.43
2018-08-18T07:50:50.565Z,100361.37
2018-08-18T07:53:16.758Z,100362.16
2018-08-18T07:55:42.585Z,100362.89
2018-08-18T07:58:08.612Z,100373.03
2018-08-18T08:00:34.549Z,100371.81
2018-08-18T08:03:00.603Z,100379.16
2018-08-18T08:05:26.577Z,100381.89
2018-08-18T08:07:52.535Z,100384.89
2018-08-18T08:10:18.484Z,100383.59
2018-08-18T08:12:44.530Z,100381.31
2018-08-18T08:15:10.392Z,100384.98
2018-08-18T08:17:36.375Z,100381.62
2018-08-18T08:20:02.322Z,100390.44
2018-08-18T08:22:28.281Z,100382.09
2018-08-18T08:24:54.257Z,100382.83
2018-08-18T08:27:20.306Z,100386.23
2018-08-18T08:29:46.260Z,100385.09
2018-08-18T08:32:12.371Z,100388.11
2018-08-18T08:34:38.345Z,100385.41
2018-08-18T08:37:04.312Z,100389.58
2018-08-18T08:39:30.285Z,100389.63
2018-08-18T08:41:56.228Z,100396.03
2018-08-18T08:44:22.192Z,100401.40
2018-08-18T08:46:48.140Z,100402.13
2018-08-18T08:49:14.244Z,100395.94
2018-08-18T08:51:40.191Z,100398.80
2018-08-18T08:54:06.189Z,100403.06
2018-08-18T08:56:32.136Z,100402.58
2018-08-18T08:58:58.156Z,100398.62
2018-08-18T09:01:24.078Z,100394.44
2018-08-18T09:03:50.073Z,100402.81
2018-08-18T09:06:16.032Z,100402.14
2018-08-18T09:08:41.987Z,100398.43
2018-08-18T09:11:07.920Z,100394.36
2018-08-18T09:13:33.892Z,100394.70
2018-08-18T09:15:59.865Z,100391.17
2018-08-18T09:18:25.829Z,100391.00
2018-08-18T09:20:51.780Z,100391.27
2018-08-18T09:23:17.723Z,100393.97
2018-08-18T09:25:43.672Z,100378.88
2018-08-18T09:28:09.627Z,100392.47
2018-08-18T09:30:35.576Z,100393.99
2018-08-18T09:33:01.566Z,100393.73
2018-08-18T09:35:27.500Z,100390.77
2018-08-18T09:37:53.480Z,100390.30
2018-08-18T09:40:19.412Z,100388.64
2018-08-18T09:42:45.369Z,100389.39
2018-08-18T09:45:11.328Z,100388.97
2018-08-18T09:47:37.284Z,100388.03
2018-08-18T09:50:03.220Z,100391.02
2018-08-18T09:52:29.160Z,100388.03
2018-08-18T09:54:55.138Z,100391.60
2018-08-18T09:57:21.095Z,100385.30
2018-08-18T09:59:47.048Z,100388.06
2018-08-18T10:02:12.982Z,100384.72
2018-08-18T10:04:38.913Z,100381.66
2018-08-18T10:07:04.865Z,100377.13
2018-08-18T10:09:30.805Z,100385.59
2018-08-18T10:11:56.752Z,100383.37
2018-08-18T10:14:22.707Z,100383.61
2018-08-18T10:16:48.674Z,100394.45
2018-08-18T10:19:14.617Z,100386.29
2018-08-18T10:21:40.574Z,100382.48
2018-08-18T10:24:06.516Z,100389.91
2018-08-18T10:26:32.462Z,100387.91
2018-08-18T10:28:58.408Z,100390.88
2018-08-18T10:31:24.377Z,100392.41
2018-08-18T10:33:50.336Z,100392.14
2018-08-18T10:36:16.289Z,100387.66
2018-08-18T10:38:42.263Z,100386.58
2018-08-18T10:41:09.232Z,100382.85
2018-08-18T10:43:35.184Z,100389.02
2018-08-18T10:46:01.128Z,100384.25
2018-08-18T10:48:27.062Z,100382.31
2018-08-18T10:50:53.020Z,100384.64
2018-08-18T10:53:18.950Z,100376.36
2018-08-18T10:55:44.914Z,100384.64
2018-08-18T10:58:10.845Z,100373.77
2018-08-18T11:00:36.824Z,100372.08
2018-08-18T11:03:02.759Z,100372.47
2018-08-18T11:05:28.685Z,100378.48
2018-08-18T11:07:54.625Z,100379.23
2018-08-18T11:10:20.563Z,100377.08
2018-08-18T11:12:46.536Z,100374.70
2018-08-18T11:15:12.495Z,100377.47
2018-08-18T11:17:38.458Z,100378.91
2018-08-18T11:20:04.428Z,100380.58
2018-08-18T11:22:30.406Z,100379.29
2018-08-18T11:24:56.355Z,100374.54
2018-08-18T11:27:22.312Z,100374.12
2018-08-18T11:29:48.269Z,100369.53
2018-08-18T11:32:14.232Z,100371.63
2018-08-18T11:34:40.184Z,100373.21
2018-08-18T11:37:06.137Z,100371.52
2018-08-18T11:39:32.086Z,100369.24
2018-08-18T11:41:58.057Z,100368.98
2018-08-18T11:44:24.016Z,100367.47
2018-08-18T11:46:49.976Z,100358.92
2018-08-18T11:49:15.946Z,100358.02
2018-08-18T11:51:41.928Z,100352.64
2018-08-18T11:54:07.906Z,100352.23
2018-08-18T11:56:33.884Z,100357.63
2018-08-18T11:58:59.837Z,100356.89
2018-08-18T12:01:25.788Z,100349.55
2018-08-18T12:03:51.741Z,100360.22
2018-08-18T12:06:17.703Z,100356.52
2018-08-18T12:08:43.649Z,100359.98
2018-08-18T12:11:09.608Z,100361.12
2018-08-18T12:13:35.549Z,100357.93
2018-08-18T12:16:01.476Z,100361.28
2018-08-18T12:18:27.458Z,100356.78
2018-08-18T12:20:53.402Z,100353.33
2018-08-18T12:23:19.382Z,100352.06
2018-08-18T12:25:45.338Z,100344.95
2018-08-18T12:28:11.282Z,100346.59
2018-08-18T12:30:37.248Z,100352.58
2018-08-18T12:33:03.197Z,100355.54
2018-08-18T12:35:29.133Z,100344.27
2018-08-18T12:37:55.103Z,100342.22
2018-08-18T12:40:21.075Z,100343.23
2018-08-18T12:42:47.042Z,100343.89
2018-08-18T12:45:12.984Z,100342.14
2018-08-18T12:47:38.927Z,100335.68
2018-08-18T12:50:05.056Z,100338.08
2018-08-18T12:52:30.995Z,100338.28
2018-08-18T12:54:56.937Z,100335.28
2018-08-18T12:57:22.870Z,100332.30
2018-08-18T12:59:48.814Z,100326.61
2018-08-18T13:02:14.784Z,100328.61
2018-08-18T13:04:40.771Z,100324.59
2018-08-18T13:07:06.705Z,100320.20
2018-08-18T13:09:32.676Z,100322.69
2018-08-18T13:11:58.608Z,100270.87
2018-08-18T13:14:24.581Z,100318.19
2018-08-18T13:16:50.485Z,100318.64
2018-08-18T13:19:16.443Z,100316.84
2018-08-18T13:21:42.397Z,100318.84
2018-08-18T13:24:08.364Z,100302.34
2018-08-18T13:26:34.398Z,100306.30
2018-08-18T13:29:00.304Z,100307.06
2018-08-18T13:31:26.241Z,100302.88
2018-08-18T13:33:52.189Z,100306.73
2018-08-18T13:36:18.142Z,100306.88
2018-08-18T13:38:44.116Z,100304.64
2018-08-18T13:41:10.142Z,100302.20
2018-08-18T13:43:36.086Z,100294.59
2018-08-18T13:46:02.018Z,100295.64
2018-08-18T13:48:27.957Z,100289.69
2018-08-18T13:50:53.907Z,100286.14
2018-08-18T13:53:19.853Z,100283.44
2018-08-18T13:55:45.781Z,100282.89
2018-08-18T13:58:11.793Z,100277.74
2018-08-18T14:00:37.723Z,100281.98
2018-08-18T14:03:03.654Z,100278.33
2018-08-18T14:05:30.100Z,100284.59
2018-08-18T14:07:56.054Z,100276.05
2018-08-18T14:10:22.140Z,100255.78
2018-08-18T14:12:48.077Z,100273.59
2018-08-18T14:15:14.033Z,100268.46
2018-08-18T14:17:39.981Z,100272.09
2018-08-18T14:20:05.924Z,100271.70
2018-08-18T14:22:31.871Z,100270.10
2018-08-18T14:24:57.841Z,100261.73
2018-08-18T14:27:23.804Z,100263.13
2018-08-18T14:29:49.770Z,100260.14
2018-08-18T14:32:15.726Z,100254.59
2018-08-18T14:34:41.681Z,100255.92
2018-08-18T14:37:07.643Z,100249.36
2018-08-18T14:39:33.613Z,100245.15
2018-08-18T14:41:59.563Z,100242.60
2018-08-18T14:44:25.527Z,100241.69
2018-08-18T14:46:51.489Z,100243.90
2018-08-18T14:49:17.430Z,100239.63
2018-08-18T14:51:43.404Z,100247.21
2018-08-18T14:54:09.383Z,100244.72
2018-08-18T14:56:35.320Z,100242.10
2018-08-18T14:59:01.354Z,100241.35
2018-08-18T15:01:27.312Z,100240.59
2018-08-18T15:03:53.242Z,100238.98
2018-08-18T15:06:19.238Z,100236.83
2018-08-18T15:08:45.170Z,100232.65
2018-08-18T15:11:11.113Z,100240.05
2018-08-18T15:13:37.053Z,100234.61
2018-08-18T15:16:03.016Z,100228.03
2018-08-18T15:18:28.959Z,100227.93
2018-08-18T15:20:54.917Z,100227.34
2018-08-18T15:23:20.890Z,100232.36
2018-08-18T15:25:46.831Z,100227.89
2018-08-18T15:28:13.768Z,100228.11
2018-08-18T15:30:39.735Z,100230.28
2018-08-18T15:33:05.688Z,100230.11
2018-08-18T15:35:31.682Z,100227.37
2018-08-18T15:37:57.633Z,100227.34
2018-08-18T15:40:23.592Z,100229.72
2018-08-18T15:42:49.548Z,100224.64
2018-08-18T15:45:15.510Z,100229.75
2018-08-18T15:47:41.570Z,100229.83
2018-08-18T15:50:07.525Z,100227.16
2018-08-18T15:52:33.460Z,100227.05
2018-08-18T15:54:59.431Z,100223.47
2018-08-18T15:57:25.380Z,100228.24
2018-08-18T15:59:51.358Z,100223.11
2018-08-18T16:02:17.316Z,100228.03
2018-08-18T16:04:43.272Z,100224.77
2018-08-18T16:07:09.251Z,100229.65
2018-08-18T16:09:35.208Z,100228.46
2018-08-18T16:12:01.175Z,100230.92
2018-08-18T16:14:27.131Z,100229.62
2018-08-18T16:16:53.111Z,100224.58
2018-08-18T16:19:19.076Z,100218.56
2018-08-18T16:21:45.025Z,100222.59
2018-08-18T16:24:11.014Z,100217.38
2018-08-18T16:26:36.975Z,100224.41
2018-08-18T16:29:02.937Z,100220.70
2018-08-18T16:31:28.940Z,100218.19
2018-08-18T16:33:54.888Z,100219.31
2018-08-18T16:36:20.841Z,100218.93
2018-08-18T16:38:46.777Z,100220.78
2018-08-18T16:41:12.734Z,100217.68
2018-08-18T16:43:38.696Z,100213.35
2018-08-18T16:46:04.650Z,100216.61
2018-08-18T16:48:30.579Z,100215.66
2018-08-18T16:50:56.514Z,100214.02
2018-08-18T16:53:22.439Z,100218.02
2018-08-18T16:55:48.386Z,100218.30
2018-08-18T16:58:14.332Z,100221.59
2018-08-18T17:00:40.279Z,100228.34
2018-08-18T17:03:06.240Z,100234.41
2018-08-18T17:05:32.198Z,100235.05
2018-08-18T17:07:58.152Z,100233.66
2018-08-18T17:10:24.113Z,100236.51
2018-08-18T17:12:50.068Z,100229.23
2018-08-18T17:15:16.026Z,100231.52
2018-08-18T17:17:41.992Z,100236.85
2018-08-18T17:20:07.952Z,100238.33
2018-08-18T17:22:33.915Z,100237.23
2018-08-18T17:24:59.879Z,100237.78
2018-08-18T17:27:25.845Z,100240.48
2018-08-18T17:29:51.786Z,100239.78
2018-08-18T17:32:17.724Z,100243.84
2018-08-18T17:34:43.656Z,100238.63
2018-08-18T17:37:09.611Z,100241.56
2018-08-18T17:39:35.601Z,100243.95
2018-08-18T17:42:01.557Z,100249.39
2018-08-18T17:44:27.508Z,100250.75
2018-08-18T17:46:53.459Z,100255.33
2018-08-18T17:49:19.423Z,100261.95
2018-08-18T17:51:45.383Z,100262.09
2018-08-18T17:54:11.353Z,100259.22
2018-08-18T17:56:37.300Z,100258.32
2018-08-18T17:59:03.325Z,100262.42
2018-08-18T18:01:29.252Z,100263.26
2018-08-18T18:03:55.219Z,100265.86
2018-08-18T18:06:21.196Z,100272.06
2018-08-18T18:08:47.159Z,100273.56
2018-08-18T18:11:13.209Z,100281.34
2018-08-18T18:13:39.210Z,100276.45
2018-08-18T18:16:05.160Z,100271.61
2018-08-18T18:18:31.113Z,100279.70
2018-08-18T18:20:57.063Z,100282.30
2018-08-18T18:23:23.019Z,100284.15
2018-08-18T18:25:48.978Z,100291.03
2018-08-18T18:28:14.940Z,100289.73
2018-08-18T18:30:40.868Z,100293.07
2018-08-18T18:33:06.881Z,100298.09
2018-08-18T18:35:32.833Z,100297.82
2018-08-18T18:37:58.777Z,100299.59
2018-08-18T18:40:24.742Z,100302.55
2018-08-18T18:42:50.673Z,100298.00
2018-08-18T18:45:16.728Z,100297.73
2018-08-18T18:47:42.665Z,100304.02
2018-08-18T18:50:08.610Z,100296.81
2018-08-18T18:52:34.566Z,100304.11
2018-08-18T18:55:00.534Z,100313.27
2018-08-18T18:57:26.464Z,100309.52
2018-08-18T18:59:52.469Z,100309.36
2018-08-18T19:02:18.406Z,100313.16
2018-08-18T19:04:44.358Z,100315.25
2018-08-18T19:07:10.301Z,100318.96
2018-08-18T19:09:36.255Z,100318.51
2018-08-18T19:12:02.211Z,100326.66
2018-08-18T19:14:28.173Z,100322.46
2018-08-18T19:16:54.125Z,100317.27
2018-08-18T19:19:20.080Z,100322.39
2018-08-18T19:21:46.044Z,100328.11
2018-08-18T19:24:11.977Z,100333.30
2018-08-18T19:26:37.939Z,100334.42
2018-08-18T19:29:04.781Z,100334.36
2018-08-18T19:31:30.712Z,100336.61
2018-08-18T19:33:56.658Z,100337.69
2018-08-18T19:36:22.604Z,100336.03
2018-08-18T19:38:48.547Z,100344.58
2018-08-18T19:41:14.503Z,100338.78
2018-08-18T19:43:40.424Z,100345.67
2018-08-18T19:46:06.392Z,100338.92
2018-08-18T19:48:32.353Z,100343.62
2018-08-18T19:50:58.346Z,100345.86
2018-08-18T19:53:24.309Z,100347.17
2018-08-18T19:55:50.296Z,100349.92
2018-08-18T19:58:16.260Z,100352.80
2018-08-18T20:00:42.204Z,100346.60
2018-08-18T20:03:08.143Z,100346.29
2018-08-18T20:05:34.086Z,100352.45
2018-08-18T20:08:00.040Z,100355.53
2018-08-18T20:10:26.024Z,100351.81
2018-08-18T20:12:51.969Z,100351.31
2018-08-18T20:15:17.923Z,100351.57
2018-08-18T20:17:43.903Z,100353.80
2018-08-18T20:20:09.840Z,100351.88
2018-08-18T20:22:35.810Z,100356.13
2018-08-18T20:25:01.750Z,100359.97
2018-08-18T20:27:27.728Z,100361.48
2018-08-18T20:29:53.660Z,100361.11
2018-08-18T20:32:19.630Z,100361.74
2018-08-18T20:34:45.633Z,100361.96
2018-08-18T20:37:11.554Z,100364.23
2018-08-18T20:39:37.501Z,100365.23
2018-08-18T20:42:03.487Z,100369.52
2018-08-18T20:44:29.428Z,100372.28
2018-08-18T20:46:55.481Z,100370.97
2018-08-18T20:49:21.416Z,100365.70
2018-08-18T20:51:47.368Z,100373.56
2018-08-18T20:54:13.293Z,100372.08
2018-08-18T20:56:39.255Z,100370.36
2018-08-18T20:59:05.190Z,100378.67
2018-08-18T21:01:31.152Z,100372.17
2018-08-18T21:03:57.114Z,100380.92
2018-08-18T21:06:23.057Z,100385.73
2018-08-18T21:08:49.028Z,100382.56
2018-08-18T21:11:14.989Z,100383.48
2018-08-18T21:13:40.918Z,100389.52
2018-08-18T21:16:06.862Z,100388.66
2018-08-18T21:18:32.789Z,100385.28
2018-08-18T21:20:58.734Z,100382.34
2018-08-18T21:23:24.682Z,100381.61
2018-08-18T21:25:50.631Z,100382.61
2018-08-18T21:28:16.581Z,100387.55
2018-08-18T21:30:42.513Z,100384.27
2018-08-18T21:33:08.460Z,100385.13
2018-08-18T21:35:34.402Z,100389.49
2018-08-18T21:38:00.379Z,100385.50
2018-08-18T21:40:26.324Z,100397.71
2018-08-18T21:42:52.252Z,100396.32
2018-08-18T21:45:18.210Z,100402.94
2018-08-18T21:47:44.300Z,100396.89
2018-08-18T21:50:10.230Z,100400.99
2018-08-18T21:52:36.153Z,100395.69
2018-08-18T21:55:02.096Z,100395.05
2018-08-18T21:57:28.057Z,100398.59
2018-08-18T21:59:54.017Z,100395.36
2018-08-18T22:02:19.965Z,100392.36
2018-08-18T22:04:46.135Z,100395.83
2018-08-18T22:07:12.122Z,100392.25
2018-08-18T22:09:38.076Z,100392.70
2018-08-18T22:12:04.052Z,100389.91
2018-08-18T22:14:30.007Z,100394.72
2018-08-18T22:16:55.974Z,100392.34
2018-08-18T22:19:21.934Z,100390.80
2018-08-18T22:21:47.882Z,100391.05
2018-08-18T22:24:13.836Z,100390.89
2018-08-18T22:26:39.788Z,100387.70
2018-08-18T22:29:05.761Z,100381.31
2018-08-18T22:31:31.704Z,100376.97
2018-08-18T22:33:57.639Z,100375.45
2018-08-18T22:36:23.589Z,100374.69
2018-08-18T22:38:49.538Z,100379.33
2018-08-18T22:41:15.585Z,100375.38
2018-08-18T22:43:41.536Z,100380.38
2018-08-18T22:46:07.465Z,100378.99
2018-08-18T22:48:33.427Z,100390.44
2018-08-18T22:50:59.379Z,100381.59
2018-08-18T22:53:25.416Z,100381.92
2018-08-18T22:55:51.377Z,100384.44
2018-08-18T22:58:17.343Z,100384.81
2018-08-18T23:00:43.301Z,100379.86
2018-08-18T23:03:09.265Z,100387.42
2018-08-18T23:05:35.189Z,100390.23
2018-08-18T23:08:01.128Z,100394.11
2018-08-18T23:10:27.096Z,100392.23
2018-08-18T23:12:53.039Z,100389.86
2018-08-18T23:15:19.369Z,100394.76
2018-08-18T23:17:45.324Z,100387.64
2018-08-18T23:20:11.282Z,100389.53
2018-08-18T23:22:37.214Z,100392.09
2018-08-18T23:25:03.214Z,100395.10
2018-08-18T23:27:29.135Z,100392.17
2018-08-18T23:29:55.097Z,100392.73
2018-08-18T23:32:21.025Z,100394.53
2018-08-18T23:34:46.960Z,100388.62
2018-08-18T23:37:12.908Z,100389.44
2018-08-18T23:39:38.847Z,100393.02
2018-08-18T23:42:04.789Z,100395.31
2018-08-18T23:44:30.737Z,100395.70
2018-08-18T23:46:56.672Z,100392.96
2018-08-18T23:49:22.619Z,100403.39
2018-08-18T23:51:48.578Z,100390.14
2018-08-18T23:54:14.552Z,100390.53
2018-08-18T23:56:40.480Z,100388.99
2018-08-18T23:59:06.445Z,100387.95
